createdAt,value
2022-12-06T00:01:21.037Z,96183.66
2022-12-06T00:03:53.053Z,96181.53
2022-12-06T00:06:21.754Z,96152.88
2022-12-06T00:08:49.560Z,96170.72
2022-12-06T00:11:25.460Z,96195.66
2022-12-06T00:13:58.618Z,96167.75
2022-12-06T00:16:26.054Z,96200.88
2022-12-06T00:18:53.223Z,96179.78
2022-12-06T00:21:24.627Z,96188.97
2022-12-06T00:23:54.351Z,96196.53
2022-12-06T00:26:22.228Z,96191.78
2022-12-06T00:28:52.075Z,96203.09
2022-12-06T00:31:20.967Z,96190.44
2022-12-06T00:33:48.278Z,96192.69
2022-12-06T00:36:17.857Z,96167.00
2022-12-06T00:38:44.933Z,96182.88
2022-12-06T00:41:17.486Z,96184.09
2022-12-06T00:43:44.967Z,96183.50
2022-12-06T00:46:17.487Z,96181.56
2022-12-06T00:48:45.288Z,96188.72
2022-12-06T00:51:13.051Z,96191.06
2022-12-06T00:53:45.246Z,96197.63
2022-12-06T00:56:12.201Z,96187.50
2022-12-06T00:58:38.963Z,96167.59
2022-12-06T01:01:13.911Z,96197.63
2022-12-06T01:03:41.946Z,96176.50
2022-12-06T01:06:11.928Z,96175.75
2022-12-06T01:08:39.399Z,96157.31
2022-12-06T01:11:07.403Z,96150.38
2022-12-06T01:13:34.708Z,96162.81
2022-12-06T01:16:10.082Z,96162.53
2022-12-06T01:18:37.095Z,96171.59
2022-12-06T01:21:09.329Z,96167.75
2022-12-06T01:23:36.441Z,96161.94
2022-12-06T01:26:05.135Z,96153.78
2022-12-06T01:28:32.148Z,96147.84
2022-12-06T01:30:58.873Z,96163.25
2022-12-06T01:33:26.541Z,96171.00
2022-12-06T01:35:53.227Z,96150.34
2022-12-06T01:38:19.888Z,96139.66
2022-12-06T01:40:48.612Z,96147.38
2022-12-06T01:43:43.101Z,96156.75
2022-12-06T01:46:30.909Z,96150.03
2022-12-06T01:49:07.727Z,96146.34
2022-12-06T01:51:35.499Z,96127.63
2022-12-06T01:54:05.843Z,96130.28
2022-12-06T01:56:32.537Z,96126.44
2022-12-06T01:59:00.063Z,96142.03
2022-12-06T02:01:30.183Z,96139.53
2022-12-06T02:04:00.146Z,96121.56
2022-12-06T02:06:29.441Z,96137.28
2022-12-06T02:08:58.496Z,96151.56
2022-12-06T02:11:25.166Z,96140.13
2022-12-06T02:13:52.625Z,96099.44
2022-12-06T02:16:43.877Z,96138.94
2022-12-06T02:19:24.134Z,96134.63
2022-12-06T02:22:32.147Z,96129.13
2022-12-06T02:25:40.644Z,96126.75
2022-12-06T02:28:46.225Z,96130.91
2022-12-06T02:31:15.621Z,96115.94
2022-12-06T02:34:06.977Z,96112.06
2022-12-06T02:36:46.315Z,96109.09
2022-12-06T02:39:19.503Z,96105.66
2022-12-06T02:42:01.627Z,96103.59
2022-12-06T02:44:34.565Z,96107.75
2022-12-06T02:47:02.556Z,96118.44
2022-12-06T02:49:33.603Z,96104.06
2022-12-06T02:52:01.407Z,96107.47
2022-12-06T02:54:29.414Z,96113.25
2022-12-06T02:56:56.120Z,96094.69
2022-12-06T02:59:22.830Z,96102.09
2022-12-06T03:01:55.719Z,96095.13
2022-12-06T03:04:46.624Z,96100.31
2022-12-06T03:07:35.997Z,96091.56
2022-12-06T03:10:17.859Z,96098.84
2022-12-06T03:12:44.408Z,96095.56
2022-12-06T03:15:20.040Z,96090.06
2022-12-06T03:18:04.327Z,96087.84
2022-12-06T03:20:43.255Z,96095.56
2022-12-06T03:23:25.197Z,96088.28
2022-12-06T03:25:53.513Z,96090.06
2022-12-06T03:28:21.906Z,96066.91
2022-12-06T03:30:52.103Z,96068.41
2022-12-06T03:33:22.744Z,96086.06
2022-12-06T03:35:52.589Z,96096.16
2022-12-06T03:38:31.534Z,96097.19
2022-12-06T03:41:03.013Z,96096.03
2022-12-06T03:43:29.831Z,96099.16
2022-12-06T03:46:03.709Z,96090.66
2022-12-06T03:48:43.474Z,96091.41
2022-12-06T03:51:34.956Z,96095.41
2022-12-06T03:54:07.688Z,96098.97
2022-12-06T03:56:36.972Z,96095.84
2022-12-06T03:59:08.866Z,96091.56
2022-12-06T04:01:35.782Z,96086.34
2022-12-06T04:04:02.550Z,96104.47
2022-12-06T04:06:29.587Z,96098.22
2022-12-06T04:09:19.046Z,96086.63
2022-12-06T04:11:46.300Z,96087.25
2022-12-06T04:14:13.003Z,96098.38
2022-12-06T04:16:58.383Z,96102.69
2022-12-06T04:19:25.261Z,96092.56
2022-12-06T04:22:10.645Z,96068.53
2022-12-06T04:24:37.364Z,96074.63
2022-12-06T04:27:22.796Z,96075.97
2022-12-06T04:30:08.205Z,96075.19
2022-12-06T04:32:53.443Z,96070.59
2022-12-06T04:35:38.942Z,96058.88
2022-12-06T04:38:24.374Z,96074.91
2022-12-06T04:40:51.055Z,96081.44
2022-12-06T04:43:36.404Z,96056.34
2022-12-06T04:46:03.354Z,96073.88
2022-12-06T04:48:30.064Z,96077.72
2022-12-06T04:50:56.747Z,96071.47
2022-12-06T04:53:23.552Z,96075.34
2022-12-06T04:55:50.373Z,96074.47
2022-12-06T04:58:17.350Z,96080.84
2022-12-06T05:00:44.085Z,96077.59
2022-12-06T05:03:12.106Z,96071.69
2022-12-06T05:05:39.474Z,96083.41
2022-12-06T05:08:07.024Z,96080.44
2022-12-06T05:10:34.565Z,96033.06
2022-12-06T05:13:01.517Z,96078.06
2022-12-06T05:15:29.412Z,96072.84
2022-12-06T05:17:56.722Z,96060.97
2022-12-06T05:20:24.532Z,96071.53
2022-12-06T05:22:51.391Z,96067.97
2022-12-06T05:25:18.073Z,96073.00
2022-12-06T05:27:45.018Z,96062.03
2022-12-06T05:30:12.984Z,96077.59
2022-12-06T05:32:40.771Z,96084.69
2022-12-06T05:35:08.593Z,96078.75
2022-12-06T05:37:35.475Z,96076.41
2022-12-06T05:40:02.874Z,96076.38
2022-12-06T05:42:30.087Z,96063.28
2022-12-06T05:44:56.781Z,96073.09
2022-12-06T05:47:23.424Z,96068.16
2022-12-06T05:49:51.283Z,96037.13
2022-12-06T05:52:17.964Z,96074.97
2022-12-06T05:54:45.820Z,96033.41
2022-12-06T05:57:12.496Z,96056.41
2022-12-06T05:59:39.216Z,96072.00
2022-12-06T06:02:06.044Z,96053.56
2022-12-06T06:04:32.987Z,96094.41
2022-12-06T06:06:59.674Z,96064.28
2022-12-06T06:09:29.224Z,96078.81
2022-12-06T06:11:56.369Z,96077.34
2022-12-06T06:14:23.549Z,96044.25
2022-12-06T06:16:52.323Z,96060.72
2022-12-06T06:19:19.568Z,96078.97
2022-12-06T06:21:47.148Z,96067.25
2022-12-06T06:24:13.786Z,96079.75
2022-12-06T06:26:40.473Z,96073.53
2022-12-06T06:29:07.293Z,96088.81
2022-12-06T06:31:34.184Z,96077.09
2022-12-06T06:34:00.956Z,96067.28
2022-12-06T06:36:27.619Z,96072.03
2022-12-06T06:38:54.358Z,96082.75
2022-12-06T06:41:21.036Z,96075.31
2022-12-06T06:43:47.672Z,96076.97
2022-12-06T06:46:14.438Z,96084.56
2022-12-06T06:48:41.142Z,96065.69
2022-12-06T06:51:13.055Z,96087.06
2022-12-06T06:53:41.419Z,96074.91
2022-12-06T06:56:08.838Z,96076.97
2022-12-06T06:58:35.478Z,96074.03
2022-12-06T07:01:05.615Z,96073.16
2022-12-06T07:03:32.374Z,96074.63
2022-12-06T07:06:02.310Z,96074.63
2022-12-06T07:08:30.854Z,96079.22
2022-12-06T07:10:58.049Z,96080.72
2022-12-06T07:13:26.576Z,96085.16
2022-12-06T07:15:53.535Z,96081.00
2022-12-06T07:18:20.731Z,96095.72
2022-12-06T07:20:49.248Z,96089.63
2022-12-06T07:23:16.484Z,96086.22
2022-12-06T07:25:43.290Z,96091.88
2022-12-06T07:28:09.937Z,96090.38
2022-12-06T07:30:36.700Z,96086.81
2022-12-06T07:33:03.423Z,96082.06
2022-12-06T07:35:55.372Z,96092.16
2022-12-06T07:38:17.010Z,96085.31
2022-12-06T07:43:49.058Z,96081.78
2022-12-06T07:46:15.773Z,96092.44
2022-12-06T07:48:42.570Z,96091.09
2022-12-06T07:51:09.156Z,96076.88
2022-12-06T07:53:41.459Z,96087.25
2022-12-06T07:56:08.910Z,96079.38
2022-12-06T07:58:35.541Z,96100.19
2022-12-06T08:01:04.537Z,96077.91
2022-12-06T08:03:31.450Z,96077.31
2022-12-06T08:05:58.141Z,96080.72
2022-12-06T08:08:28.425Z,96079.09
2022-12-06T08:10:59.946Z,96074.19
2022-12-06T08:13:26.688Z,96075.22
2022-12-06T08:15:53.373Z,96067.97
2022-12-06T08:18:20.089Z,96059.50
2022-12-06T08:20:46.747Z,96070.16
2022-12-06T08:23:13.345Z,96078.19
2022-12-06T08:25:40.159Z,96079.06
2022-12-06T08:28:06.801Z,96064.53
2022-12-06T08:30:33.655Z,96069.25
2022-12-06T08:33:00.368Z,96072.38
2022-12-06T08:35:26.988Z,96066.00
2022-12-06T08:37:53.643Z,96078.88
2022-12-06T08:40:20.278Z,96067.59
2022-12-06T08:42:47.027Z,96078.44
2022-12-06T08:45:13.637Z,96077.69
2022-12-06T08:47:40.287Z,96077.25
2022-12-06T08:50:07.573Z,96080.34
2022-12-06T08:52:34.220Z,96083.47
2022-12-06T08:55:00.823Z,96078.56
2022-12-06T08:57:27.431Z,96085.53
2022-12-06T08:59:54.185Z,96094.47
2022-12-06T09:02:20.983Z,96084.94
2022-12-06T09:04:50.786Z,96087.91
2022-12-06T09:07:18.226Z,96091.44
2022-12-06T09:09:46.261Z,96084.88
2022-12-06T09:12:13.518Z,96095.13
2022-12-06T09:14:40.666Z,96083.09
2022-12-06T09:17:07.334Z,96093.78
2022-12-06T09:19:34.688Z,96085.44
2022-12-06T09:22:01.550Z,96092.31
2022-12-06T09:24:28.188Z,96091.72
2022-12-06T09:26:54.836Z,96087.41
2022-12-06T09:29:21.767Z,96093.19
2022-12-06T09:31:48.678Z,96095.25
2022-12-06T09:34:15.965Z,96082.78
2022-12-06T09:36:56.923Z,96078.28
2022-12-06T09:39:33.152Z,96082.88
2022-12-06T09:42:35.847Z,96074.81
2022-12-06T09:45:26.747Z,96086.53
2022-12-06T09:48:06.519Z,96083.25
2022-12-06T09:51:09.863Z,96081.19
2022-12-06T09:53:54.466Z,96080.56
2022-12-06T09:56:23.887Z,96076.84
2022-12-06T09:59:08.485Z,96062.16
2022-12-06T10:01:59.924Z,96061.03
2022-12-06T10:04:39.597Z,96062.69
2022-12-06T10:07:17.985Z,96043.41
2022-12-06T10:09:50.693Z,96054.69
2022-12-06T10:12:17.231Z,96054.97
2022-12-06T10:15:13.017Z,96045.56
2022-12-06T10:18:04.717Z,96053.69
2022-12-06T10:20:31.425Z,96043.13
2022-12-06T10:23:29.665Z,96035.25
2022-12-06T10:26:12.593Z,96028.41
2022-12-06T10:28:44.122Z,96025.97
2022-12-06T10:31:33.711Z,96021.22
2022-12-06T10:34:12.083Z,96022.09
2022-12-06T10:36:57.146Z,96019.28
2022-12-06T10:39:33.399Z,96014.50
2022-12-06T10:41:59.984Z,96009.72
2022-12-06T10:44:49.733Z,96016.25
2022-12-06T10:47:18.457Z,96003.19
2022-12-06T10:49:59.866Z,96011.47
2022-12-06T10:52:45.715Z,96009.47
2022-12-06T10:55:15.716Z,96009.78
2022-12-06T10:58:10.036Z,96011.53
2022-12-06T11:00:55.182Z,96014.50
2022-12-06T11:03:42.717Z,96004.94
2022-12-06T11:06:54.500Z,96001.53
2022-12-06T11:09:40.350Z,95991.97
2022-12-06T11:12:38.871Z,95998.47
2022-12-06T11:15:20.925Z,95997.13
2022-12-06T11:17:55.833Z,95996.41
2022-12-06T11:20:28.907Z,95997.00
2022-12-06T11:23:45.536Z,96005.75
2022-12-06T11:26:50.801Z,95995.91
2022-12-06T11:29:18.396Z,96001.88
2022-12-06T11:31:52.240Z,96005.56
2022-12-06T11:34:27.190Z,95995.72
2022-12-06T11:36:59.918Z,95992.91
2022-12-06T11:39:28.811Z,96002.25
2022-12-06T11:41:57.568Z,95986.66
2022-12-06T11:44:38.537Z,95982.59
2022-12-06T11:47:06.797Z,95983.94
2022-12-06T11:49:38.621Z,95983.31
2022-12-06T11:52:12.811Z,95986.28
2022-12-06T11:54:44.530Z,96003.38
2022-12-06T11:57:22.895Z,95989.88
2022-12-06T12:00:08.222Z,95997.59
2022-12-06T12:02:40.130Z,95994.25
2022-12-06T12:05:09.557Z,95989.59
2022-12-06T12:07:38.997Z,95991.81
2022-12-06T12:10:26.511Z,95990.56
2022-12-06T12:13:12.106Z,95984.00
2022-12-06T12:15:47.581Z,95988.59
2022-12-06T12:18:26.624Z,95980.72
2022-12-06T12:20:54.926Z,95987.09
2022-12-06T12:23:28.244Z,95993.66
2022-12-06T12:26:03.756Z,95991.53
2022-12-06T12:28:33.141Z,95985.44
2022-12-06T12:31:08.937Z,95983.47
2022-12-06T12:33:36.229Z,95985.06
2022-12-06T12:36:02.805Z,95982.38
2022-12-06T12:38:52.233Z,95973.44
2022-12-06T12:41:48.180Z,95968.03
2022-12-06T12:44:38.820Z,95971.72
2022-12-06T12:47:20.120Z,95961.88
2022-12-06T12:50:20.249Z,95955.03
2022-12-06T12:52:47.130Z,95950.09
2022-12-06T12:55:16.177Z,95942.97
2022-12-06T12:57:49.013Z,95943.44
2022-12-06T13:00:18.419Z,95948.63
2022-12-06T13:02:51.036Z,95937.03
2022-12-06T13:05:33.409Z,95919.69
2022-12-06T13:08:21.418Z,95934.59
2022-12-06T13:10:57.101Z,95945.91
2022-12-06T13:13:37.672Z,95949.22
2022-12-06T13:16:11.997Z,95932.88
2022-12-06T13:18:52.750Z,95937.19
2022-12-06T13:21:39.263Z,95933.56
2022-12-06T13:24:17.976Z,95929.91
2022-12-06T13:26:49.638Z,95913.28
2022-12-06T13:29:33.579Z,95914.06
2022-12-06T13:32:05.902Z,95915.56
2022-12-06T13:34:39.170Z,95925.53
2022-12-06T13:37:47.022Z,95930.16
2022-12-06T13:40:32.636Z,95939.41
2022-12-06T13:43:05.002Z,95924.63
2022-12-06T13:46:06.809Z,95927.13
2022-12-06T13:48:33.456Z,95914.19
2022-12-06T13:51:31.745Z,95915.81
2022-12-06T13:54:18.650Z,95912.97
2022-12-06T13:56:45.925Z,95908.00
2022-12-06T13:59:12.462Z,95904.56
2022-12-06T14:01:42.142Z,95913.19
2022-12-06T14:04:23.810Z,95907.41
2022-12-06T14:07:02.858Z,95906.53
2022-12-06T14:10:08.126Z,95901.00
2022-12-06T14:12:34.853Z,95904.44
2022-12-06T14:15:05.219Z,95900.75
2022-12-06T14:18:01.596Z,95903.56
2022-12-06T14:20:27.930Z,95914.63
2022-12-06T14:22:54.900Z,95918.06
2022-12-06T14:25:28.433Z,95922.13
2022-12-06T14:28:13.147Z,95920.41
2022-12-06T14:30:40.349Z,95907.50
2022-12-06T14:33:23.164Z,95909.63
2022-12-06T14:35:52.945Z,95913.31
2022-12-06T14:38:29.126Z,95916.28
2022-12-06T14:41:15.063Z,95897.22
2022-12-06T14:43:46.142Z,95904.72
2022-12-06T14:46:16.142Z,95901.28
2022-12-06T14:49:02.477Z,95907.78
2022-12-06T14:51:40.796Z,95908.03
2022-12-06T14:54:26.822Z,95911.50
2022-12-06T14:56:53.868Z,95910.53
2022-12-06T14:59:47.440Z,95902.19
2022-12-06T15:02:27.687Z,95909.44
2022-12-06T15:04:55.104Z,95912.28
2022-12-06T15:07:37.521Z,95919.41
2022-12-06T15:10:17.234Z,95910.91
2022-12-06T15:12:55.755Z,95919.41
2022-12-06T15:15:34.641Z,95915.22
2022-12-06T15:18:28.976Z,95926.69
2022-12-06T15:20:55.827Z,95914.59
2022-12-06T15:23:31.704Z,95916.72
2022-12-06T15:25:58.555Z,95919.41
2022-12-06T15:28:25.683Z,95924.19
2022-12-06T15:30:53.173Z,95909.56
2022-12-06T15:33:22.711Z,95913.13
2022-12-06T15:35:50.510Z,95916.56
2022-12-06T15:38:17.259Z,95907.47
2022-12-06T15:40:47.302Z,95913.88
2022-12-06T15:43:30.185Z,95904.75
2022-12-06T15:46:00.758Z,95899.72
2022-12-06T15:48:28.689Z,95908.22
2022-12-06T15:50:56.691Z,95906.75
2022-12-06T15:53:25.757Z,95903.78
2022-12-06T15:55:52.857Z,95896.84
2022-12-06T15:58:22.816Z,95898.47
2022-12-06T16:00:50.295Z,95902.03
2022-12-06T16:03:17.250Z,95896.97
2022-12-06T16:05:43.944Z,95894.78
2022-12-06T16:08:10.640Z,95900.31
2022-12-06T16:11:10.424Z,95898.72
2022-12-06T16:13:24.140Z,95903.34
2022-12-06T16:15:52.185Z,95901.41
2022-12-06T16:18:19.452Z,95906.66
2022-12-06T16:20:46.244Z,95905.03
2022-12-06T16:26:24.301Z,95893.22
2022-12-06T16:28:50.901Z,95887.81
2022-12-06T16:31:17.658Z,95892.00
2022-12-06T16:33:44.303Z,95894.69
2022-12-06T16:36:25.211Z,95902.31
2022-12-06T16:38:56.227Z,95897.00
2022-12-06T16:41:33.922Z,95897.75
2022-12-06T16:44:01.575Z,95901.31
2022-12-06T16:46:34.141Z,95897.13
2022-12-06T16:52:13.518Z,95901.44
2022-12-06T16:54:41.691Z,95904.00
2022-12-06T16:57:10.181Z,95913.25
2022-12-06T16:59:37.081Z,95897.63
2022-12-06T17:02:07.201Z,95906.97
2022-12-06T17:04:38.219Z,95896.16
2022-12-06T17:07:04.842Z,95909.66
2022-12-06T17:09:31.482Z,95907.59
2022-12-06T17:12:06.261Z,95904.00
2022-12-06T17:14:33.282Z,95916.06
2022-12-06T17:17:04.092Z,95908.44
2022-12-06T17:19:32.338Z,95919.75
2022-12-06T17:22:02.348Z,95906.84
2022-12-06T17:24:29.162Z,95916.53
2022-12-06T17:26:56.149Z,95911.97
2022-12-06T17:29:23.873Z,95919.22
2022-12-06T17:31:51.796Z,95906.50
2022-12-06T17:34:20.137Z,95910.44
2022-12-06T17:36:48.236Z,95926.81
2022-12-06T17:39:18.188Z,95916.09
2022-12-06T17:42:03.866Z,95916.09
2022-12-06T17:44:30.917Z,95913.47
2022-12-06T17:46:57.586Z,95926.41
2022-12-06T17:49:25.953Z,95924.97
2022-12-06T17:51:53.367Z,95939.16
2022-12-06T17:54:20.661Z,95925.97
2022-12-06T17:56:49.731Z,95925.56
2022-12-06T17:59:20.480Z,95910.09
2022-12-06T18:04:34.578Z,95929.47
2022-12-06T18:07:01.532Z,95932.94
2022-12-06T18:09:28.330Z,95932.44
2022-12-06T18:11:55.839Z,95937.78
2022-12-06T18:14:22.595Z,95936.56
2022-12-06T18:16:49.655Z,95937.19
2022-12-06T18:19:19.319Z,95941.19
2022-12-06T18:21:46.944Z,95942.81
2022-12-06T18:24:22.156Z,95944.31
2022-12-06T18:26:51.588Z,95938.16
2022-12-06T18:29:22.117Z,95937.09
2022-12-06T18:31:49.860Z,95929.50
2022-12-06T18:34:17.588Z,95930.97
2022-12-06T18:36:44.812Z,95935.00
2022-12-06T18:39:15.864Z,95937.22
2022-12-06T18:41:46.380Z,95931.31
2022-12-06T18:44:15.710Z,95937.72
2022-12-06T18:46:46.087Z,95928.84
2022-12-06T18:49:30.914Z,95945.31
2022-12-06T18:51:58.303Z,95885.53
2022-12-06T18:54:26.519Z,95911.50
2022-12-06T18:56:53.736Z,95962.72
2022-12-06T18:59:29.148Z,95908.63
2022-12-06T19:01:56.944Z,95953.44
2022-12-06T19:04:24.317Z,95908.34
2022-12-06T19:06:51.988Z,95948.94
2022-12-06T19:09:18.888Z,95928.94
2022-12-06T19:11:46.472Z,95957.41
2022-12-06T19:14:14.684Z,95945.34
2022-12-06T19:16:48.193Z,95929.97
2022-12-06T19:19:35.217Z,95922.97
2022-12-06T19:22:02.466Z,95952.66
2022-12-06T19:24:30.382Z,95933.19
2022-12-06T19:27:00.517Z,95929.47
2022-12-06T19:30:01.047Z,95916.66
2022-12-06T19:32:37.585Z,95936.47
2022-12-06T19:35:08.494Z,95954.91
2022-12-06T19:37:37.237Z,95960.31
2022-12-06T19:40:05.040Z,95948.88
2022-12-06T19:42:50.804Z,95949.88
2022-12-06T19:45:17.988Z,95955.41
2022-12-06T19:47:45.035Z,95940.19
2022-12-06T19:50:12.077Z,95938.56
2022-12-06T19:52:39.065Z,95928.34
2022-12-06T19:55:06.624Z,95967.84
2022-12-06T19:57:33.611Z,95941.06
2022-12-06T20:00:00.782Z,95930.00
2022-12-06T20:02:28.168Z,95936.47
2022-12-06T20:04:55.356Z,95925.66
2022-12-06T20:07:22.699Z,95940.47
2022-12-06T20:09:49.797Z,95942.22
2022-12-06T20:12:16.891Z,95933.25
2022-12-06T20:14:46.250Z,95943.88
2022-12-06T20:17:19.303Z,95921.09
2022-12-06T20:19:46.586Z,95937.09
2022-12-06T20:22:14.757Z,95930.00
2022-12-06T20:24:42.434Z,95961.19
2022-12-06T20:27:09.533Z,95941.13
2022-12-06T20:29:36.310Z,95902.97
2022-12-06T20:32:04.007Z,95951.31
2022-12-06T20:34:41.100Z,95945.34
2022-12-06T20:37:08.865Z,95925.44
2022-12-06T20:39:39.189Z,95899.28
2022-12-06T20:42:07.340Z,95922.97
2022-12-06T20:44:40.390Z,95927.06
2022-12-06T20:47:08.016Z,95951.88
2022-12-06T20:49:43.232Z,95932.06
2022-12-06T20:52:13.505Z,95926.81
2022-12-06T20:54:49.103Z,95939.72
2022-12-06T20:57:28.491Z,95946.22
2022-12-06T21:00:02.144Z,95951.88
2022-12-06T21:02:34.699Z,95946.84
2022-12-06T21:05:15.087Z,95931.09
2022-12-06T21:07:48.456Z,95921.97
2022-12-06T21:10:27.917Z,95945.09
2022-12-06T21:13:06.145Z,95934.53
2022-12-06T21:15:38.914Z,95943.50
2022-12-06T21:18:16.100Z,95937.84
2022-12-06T21:20:58.737Z,95936.50
2022-12-06T21:23:32.435Z,95937.09
2022-12-06T21:26:12.008Z,95937.09
2022-12-06T21:28:50.174Z,95945.56
2022-12-06T21:31:23.531Z,95951.56
2022-12-06T21:33:56.999Z,95941.75
2022-12-06T21:36:25.769Z,95969.53
2022-12-06T21:38:54.552Z,95941.75
2022-12-06T21:41:23.390Z,95954.13
2022-12-06T21:43:52.026Z,95952.31
2022-12-06T21:46:25.941Z,95952.66
2022-12-06T21:48:59.641Z,95951.84
2022-12-06T21:51:30.661Z,95946.50
2022-12-06T21:54:01.426Z,95964.38
2022-12-06T21:56:31.519Z,95953.06
2022-12-06T21:59:18.634Z,95946.13
2022-12-06T22:01:46.685Z,95951.75
2022-12-06T22:04:14.868Z,95936.03
2022-12-06T22:06:42.957Z,95933.19
2022-12-06T22:09:14.022Z,95943.75
2022-12-06T22:11:44.875Z,95942.25
2022-12-06T22:14:14.671Z,95945.03
2022-12-06T22:16:51.133Z,95954.53
2022-12-06T22:19:19.305Z,95943.09
2022-12-06T22:21:48.525Z,95946.66
2022-12-06T22:24:16.911Z,95954.84
2022-12-06T22:26:53.878Z,95951.22
2022-12-06T22:29:27.930Z,95949.28
2022-12-06T22:31:56.191Z,95965.16
2022-12-06T22:34:24.428Z,95936.69
2022-12-06T22:36:52.448Z,95950.97
2022-12-06T22:39:20.667Z,95950.63
2022-12-06T22:41:48.942Z,95956.16
2022-12-06T22:44:17.222Z,95968.44
2022-12-06T22:46:47.988Z,95972.50
2022-12-06T22:49:18.390Z,95957.38
2022-12-06T22:51:47.070Z,95958.22
2022-12-06T22:54:16.397Z,95962.13
2022-12-06T22:56:50.586Z,95964.00
2022-12-06T22:59:19.793Z,95956.47
2022-12-06T23:01:49.739Z,95937.22
2022-12-06T23:04:17.802Z,95959.31
2022-12-06T23:06:48.918Z,95958.31
2022-12-06T23:09:17.930Z,95955.94
2022-12-06T23:11:47.627Z,95948.81
2022-12-06T23:14:15.586Z,95943.16
2022-12-06T23:16:51.202Z,95936.47
2022-12-06T23:19:19.613Z,95954.47
2022-12-06T23:21:48.831Z,95944.94
2022-12-06T23:24:20.261Z,95953.31
2022-12-06T23:26:58.005Z,95950.19
2022-12-06T23:29:27.568Z,95938.03
2022-12-06T23:31:55.938Z,95945.63
2022-12-06T23:34:27.226Z,95950.56
2022-12-06T23:36:55.371Z,95955.00
2022-12-06T23:39:23.847Z,95952.75
2022-12-06T23:41:52.851Z,95946.84
2022-12-06T23:44:26.285Z,95942.53
2022-12-06T23:46:57.118Z,95931.91
2022-12-06T23:49:25.580Z,95961.22
2022-12-06T23:51:54.350Z,95955.59
2022-12-06T23:54:24.137Z,95952.22
2022-12-06T23:56:53.156Z,95954.44
2022-12-06T23:59:20.917Z,95968.09
